Time;durP1;ratioP1;P1;durP2;ratioP2;P2;SDS_P1;SDS_P2;PMS_P1;PMS_P2;Temp;Humidity;BMP_temperature;BMP_pressure;BME280_temperature;BME280_humidity;BME280_pressure;Samples;Min_cycle;Max_cycle;Signal;HPM_P1;HPM_P2
2023/05/07 00:01:31;;;;;;;1999.90;522.43;;;;;;;7.27;100.00;101777.78;5064603;28;20046;-71
2023/05/07 00:03:57;;;;;;;1999.90;922.33;;;;;;;7.26;100.00;101776.09;5064114;28;20095;-71
2023/05/07 00:06:22;;;;;;;1999.90;602.10;;;;;;;7.34;100.00;101779.03;5077153;28;20036;-70
2023/05/07 00:08:48;;;;;;;1999.90;576.47;;;;;;;7.35;100.00;101775.38;5064330;28;20059;-71
2023/05/07 00:11:13;;;;;;;1999.90;570.22;;;;;;;7.26;100.00;101776.09;5063030;28;20063;-71
2023/05/07 00:13:38;;;;;;;1999.90;455.73;;;;;;;7.31;100.00;101776.59;5062834;28;20035;-71
2023/05/07 00:16:04;;;;;;;1999.90;693.97;;;;;;;7.33;100.00;101774.69;5064003;28;20020;-70
2023/05/07 00:18:30;;;;;;;1999.90;933.35;;;;;;;7.46;100.00;101779.91;5064536;28;20375;-70
2023/05/07 00:20:56;;;;;;;1999.90;729.63;;;;;;;7.39;100.00;101768.88;5062892;28;20035;-71
2023/05/07 00:23:22;;;;;;;1999.90;783.75;;;;;;;7.41;100.00;101764.31;5064239;28;20028;-71
2023/05/07 00:25:47;;;;;;;1999.90;673.40;;;;;;;7.36;100.00;101766.47;5064135;28;20391;-71
2023/05/07 00:28:12;;;;;;;1999.90;819.13;;;;;;;7.23;100.00;101771.00;5065249;28;20040;-73
2023/05/07 00:30:38;;;;;;;1999.90;669.40;;;;;;;7.37;100.00;101781.44;5063068;28;20403;-72
2023/05/07 00:33:03;;;;;;;1999.90;605.90;;;;;;;7.37;100.00;101776.13;5063839;28;20562;-73
2023/05/07 00:35:29;;;;;;;1999.90;772.00;;;;;;;7.44;100.00;101779.16;5051920;28;20574;-72
2023/05/07 00:37:55;;;;;;;1999.90;608.70;;;;;;;7.47;100.00;101774.47;5046217;28;20028;-73
2023/05/07 00:40:21;;;;;;;1999.90;927.17;;;;;;;7.49;100.00;101774.34;5046502;28;20045;-73
2023/05/07 00:42:46;;;;;;;1999.90;982.65;;;;;;;7.44;100.00;101772.03;5062325;28;20046;-70
2023/05/07 00:45:16;;;;;;;1999.90;879.00;;;;;;;7.51;100.00;101769.75;5062693;28;20042;-72
2023/05/07 00:47:42;;;;;;;1999.90;709.30;;;;;;;7.55;100.00;101772.06;5062727;28;20151;-72
2023/05/07 00:50:09;;;;;;;1999.90;804.40;;;;;;;7.52;100.00;101764.34;5046141;28;20103;-73
2023/05/07 00:52:36;;;;;;;1999.90;800.88;;;;;;;7.53;100.00;101763.34;5045695;28;20495;-73
2023/05/07 00:55:05;;;;;;;1999.90;946.28;;;;;;;7.54;100.00;101756.25;5062612;28;20055;-73
2023/05/07 00:57:36;;;;;;;1999.90;966.33;;;;;;;7.48;100.00;101749.59;5046367;28;20019;-70
2023/05/07 01:00:03;;;;;;;1999.90;896.75;;;;;;;7.54;100.00;101749.13;5064386;28;20473;-70
2023/05/07 01:02:28;;;;;;;1999.90;918.80;;;;;;;7.42;100.00;101741.22;5063590;28;20027;-71
2023/05/07 01:04:55;;;;;;;1999.90;884.97;;;;;;;7.50;100.00;101745.00;5063774;28;20040;-73
2023/05/07 01:07:20;;;;;;;1999.90;999.90;;;;;;;7.58;100.00;101741.75;5063295;28;20627;-73
2023/05/07 01:09:46;;;;;;;1999.90;772.83;;;;;;;7.52;100.00;101743.09;5065995;28;20047;-72
2023/05/07 01:12:12;;;;;;;1999.90;756.63;;;;;;;7.34;100.00;101720.56;5065911;28;20039;-69
2023/05/07 01:14:37;;;;;;;;;;;;;;;7.41;100.00;101727.13;5066707;28;20036;-71
2023/05/07 01:17:03;;;;;;;1999.90;625.75;;;;;;;7.35;100.00;101717.81;5049327;28;19915;-72
2023/05/07 01:19:30;;;;;;;1999.90;999.90;;;;;;;7.37;100.00;101726.50;5066525;28;20036;-73
2023/05/07 01:22:04;;;;;;;1999.90;911.05;;;;;;;7.42;100.00;101728.78;5049320;28;20390;-73
2023/05/07 01:24:31;;;;;;;1999.90;859.17;;;;;;;7.36;100.00;101723.97;5049786;28;20044;-72
2023/05/07 01:26:58;;;;;;;1999.90;893.78;;;;;;;7.40;100.00;101718.31;5049049;28;20029;-72
2023/05/07 01:29:23;;;;;;;1999.90;816.33;;;;;;;7.35;100.00;101708.97;5049567;28;20079;-73
2023/05/07 01:31:51;;;;;;;1999.90;754.40;;;;;;;7.27;100.00;101698.09;5049237;28;20282;-73
2023/05/07 01:34:18;;;;;;;1999.90;776.05;;;;;;;7.24;100.00;101706.31;5055538;28;20404;-73
2023/05/07 01:36:44;;;;;;;1999.90;869.50;;;;;;;7.37;100.00;101720.34;5059850;28;20282;-72
2023/05/07 01:39:10;;;;;;;;;;;;;;;7.28;100.00;101707.75;5065872;28;20048;-71
2023/05/07 01:41:35;;;;;;;1999.90;769.78;;;;;;;7.27;100.00;101714.03;5049282;28;19913;-72
2023/05/07 01:44:02;;;;;;;1999.90;706.20;;;;;;;7.29;100.00;101720.94;5065434;28;20097;-69
2023/05/07 01:46:29;;;;;;;1999.90;736.92;;;;;;;7.37;100.00;101715.88;5065527;28;20434;-73
2023/05/07 01:48:55;;;;;;;1999.90;728.78;;;;;;;7.30;100.00;101700.50;5049116;28;20036;-72
2023/05/07 01:51:22;;;;;;;1999.90;747.08;;;;;;;7.26;100.00;101707.03;5065590;28;20619;-73
2023/05/07 01:53:50;;;;;;;1999.90;739.05;;;;;;;7.36;100.00;101718.66;5065128;28;20070;-73
2023/05/07 01:56:17;;;;;;;1999.90;896.50;;;;;;;7.37;100.00;101715.03;5038649;28;20348;-70
2023/05/07 01:58:46;;;;;;;1999.90;622.38;;;;;;;7.35;100.00;101722.25;5047432;28;20036;-73
2023/05/07 02:01:12;;;;;;;1999.90;783.20;;;;;;;7.32;100.00;101711.88;5065577;28;20178;-69
2023/05/07 02:03:38;;;;;;;1999.90;912.72;;;;;;;7.35;100.00;101716.94;5048299;28;20024;-73
2023/05/07 02:06:10;;;;;;;1999.90;813.72;;;;;;;7.36;100.00;101716.84;5049851;28;20032;-70
2023/05/07 02:08:38;;;;;;;1999.90;770.13;;;;;;;7.38;100.00;101716.72;5053487;28;20033;-73
2023/05/07 02:11:03;;;;;;;1999.90;760.70;;;;;;;7.30;100.00;101709.31;5048605;28;20021;-73
2023/05/07 02:13:31;;;;;;;;;;;;;;;7.37;100.00;101728.31;5048909;28;20028;-72
2023/05/07 02:15:57;;;;;;;1999.90;771.88;;;;;;;7.35;100.00;101722.25;5065112;28;19966;-72
2023/05/07 02:18:23;;;;;;;1999.90;596.42;;;;;;;7.32;100.00;101718.03;5064477;28;20107;-73
2023/05/07 02:20:49;;;;;;;1999.90;764.90;;;;;;;7.40;100.00;101730.75;5064464;28;20123;-71
2023/05/07 02:23:14;;;;;;;1999.90;722.97;;;;;;;7.32;100.00;101727.81;5064579;28;20046;-73
2023/05/07 02:25:40;;;;;;;1999.90;700.33;;;;;;;7.34;100.00;101725.88;5064907;28;20173;-73
2023/05/07 02:28:05;;;;;;;1999.90;999.90;;;;;;;7.38;100.00;101732.66;5064599;28;20275;-73
2023/05/07 02:30:47;;;;;;;1999.90;877.22;;;;;;;7.40;100.00;101744.03;5064686;28;20036;-71
2023/05/07 02:33:13;;;;;;;1999.90;762.27;;;;;;;7.36;100.00;101735.44;5064528;28;20032;-73
2023/05/07 02:35:39;;;;;;;1999.90;782.88;;;;;;;7.44;100.00;101747.28;5048120;28;20546;-72
2023/05/07 02:38:05;;;;;;;1999.90;849.95;;;;;;;7.45;100.00;101749.84;5064509;28;20115;-72
2023/05/07 02:40:33;;;;;;;1999.90;906.17;;;;;;;7.40;100.00;101744.03;5053403;28;20044;-70
2023/05/07 02:42:59;;;;;;;1999.90;775.38;;;;;;;7.40;100.00;101741.38;5064106;28;20078;-73
2023/05/07 02:45:24;;;;;;;1999.90;800.80;;;;;;;7.38;100.00;101738.81;5065996;28;20033;-73
2023/05/07 02:47:52;;;;;;;1999.90;747.85;;;;;;;7.30;100.00;101745.69;5064246;28;20107;-72
2023/05/07 02:50:17;;;;;;;1999.90;839.40;;;;;;;7.26;100.00;101744.22;5064400;28;20147;-72
2023/05/07 02:52:43;;;;;;;1999.90;866.67;;;;;;;7.32;100.00;101751.72;5047353;28;20493;-70
2023/05/07 02:55:08;;;;;;;1999.90;999.90;;;;;;;7.38;100.00;101753.94;5064335;28;20340;-73
2023/05/07 02:57:34;;;;;;;1999.90;810.53;;;;;;;7.35;100.00;101752.34;5052657;28;20024;-71
2023/05/07 03:00:09;;;;;;;1999.90;961.28;;;;;;;7.40;100.00;101754.66;5063684;28;20523;-73
2023/05/07 03:02:35;;;;;;;1999.90;738.10;;;;;;;7.49;100.00;101753.94;5047226;28;20498;-73
2023/05/07 03:05:00;;;;;;;1999.90;713.17;;;;;;;7.48;100.00;101744.28;5063772;28;20144;-72
2023/05/07 03:07:25;;;;;;;1999.90;952.23;;;;;;;7.42;100.00;101733.25;5064133;28;20029;-71
2023/05/07 03:09:51;;;;;;;1999.90;784.03;;;;;;;7.40;100.00;101731.59;5065017;28;20510;-69
2023/05/07 03:12:16;;;;;;;1999.90;894.17;;;;;;;7.30;100.00;101714.63;5063381;28;20028;-69
2023/05/07 03:14:41;;;;;;;1999.90;745.63;;;;;;;7.31;100.00;101720.81;5063689;28;20403;-72
2023/05/07 03:17:07;;;;;;;1999.90;805.13;;;;;;;7.36;100.00;101723.97;5064848;28;20033;-73
2023/05/07 03:19:32;;;;;;;1999.90;971.20;;;;;;;7.42;100.00;101731.44;5046919;28;20040;-73
2023/05/07 03:21:57;;;;;;;1999.90;855.93;;;;;;;7.42;100.00;101728.78;5063780;28;20035;-73
2023/05/07 03:24:23;;;;;;;1999.90;842.43;;;;;;;7.54;100.00;101735.84;5063456;28;20032;-73
2023/05/07 03:26:48;;;;;;;1999.90;819.60;;;;;;;7.55;100.00;101734.88;5046900;28;20113;-73
2023/05/07 03:29:15;;;;;;;1999.90;807.08;;;;;;;7.47;100.00;101725.78;5063615;28;20577;-73
2023/05/07 03:31:40;;;;;;;1999.90;966.92;;;;;;;7.39;100.00;101735.19;5051080;28;20032;-73
2023/05/07 03:34:05;;;;;;;1999.90;797.23;;;;;;;7.32;100.00;101744.59;5062989;28;20046;-70
2023/05/07 03:36:31;;;;;;;1999.90;999.90;;;;;;;7.34;100.00;101740.00;5063624;28;20017;-69
2023/05/07 03:38:56;;;;;;;1999.90;835.60;;;;;;;7.40;100.00;101755.50;5064690;28;20028;-71
2023/05/07 03:41:25;;;;;;;1999.90;999.90;;;;;;;7.41;100.00;101756.34;5063677;28;20494;-72
2023/05/07 03:43:51;;;;;;;1999.90;887.00;;;;;;;7.38;100.00;101743.31;5046206;28;20465;-70
2023/05/07 03:46:17;;;;;;;1999.90;935.53;;;;;;;7.36;100.00;101748.72;5054216;28;20021;-73
2023/05/07 03:48:42;;;;;;;1999.90;802.03;;;;;;;7.40;100.00;101744.03;5046911;28;20047;-69
2023/05/07 03:51:08;;;;;;;1999.90;882.63;;;;;;;7.39;100.00;101744.97;5063168;28;20044;-72
2023/05/07 03:53:34;;;;;;;1999.90;930.63;;;;;;;7.32;100.00;101738.44;5051257;28;20136;-71
2023/05/07 03:55:59;;;;;;;1999.90;829.33;;;;;;;7.36;100.00;101745.22;5063338;28;20075;-71
2023/05/07 03:58:25;;;;;;;1999.90;637.53;;;;;;;7.34;100.00;101737.34;5063266;28;20025;-69
2023/05/07 04:00:53;;;;;;;1999.90;904.72;;;;;;;7.31;100.00;101750.03;5046794;28;20436;-73
2023/05/07 04:03:25;;;;;;;1999.90;999.90;;;;;;;7.37;100.00;101763.72;5053510;28;20024;-73
2023/05/07 04:05:51;;;;;;;1999.90;637.00;;;;;;;7.41;100.00;101772.28;5046500;28;20036;-72
2023/05/07 04:08:17;;;;;;;1999.90;905.27;;;;;;;7.38;100.00;101761.91;5063432;28;20407;-73
2023/05/07 04:10:46;;;;;;;1999.90;783.10;;;;;;;7.34;100.00;101779.88;5062934;28;20279;-71
2023/05/07 04:13:12;;;;;;;1999.90;677.22;;;;;;;7.33;100.00;101780.84;5046254;28;20055;-71
2023/05/07 04:15:38;;;;;;;1999.90;999.90;;;;;;;7.37;100.00;101778.78;5063280;28;20128;-73
2023/05/07 04:18:06;;;;;;;1999.90;809.10;;;;;;;7.35;100.00;101783.34;5062977;28;20085;-71
2023/05/07 04:20:34;;;;;;;1999.90;900.38;;;;;;;7.39;100.00;101793.63;5063232;28;20520;-73
2023/05/07 04:23:02;;;;;;;1999.90;882.63;;;;;;;7.39;100.00;101787.47;5062578;28;20086;-73
2023/05/07 04:25:28;;;;;;;1999.90;700.97;;;;;;;7.35;100.00;101772.72;5063215;28;20034;-73
2023/05/07 04:28:00;;;;;;;1999.90;808.60;;;;;;;7.28;100.00;101780.34;5063018;28;20040;-73
2023/05/07 04:30:27;;;;;;;1999.90;689.80;;;;;;;7.37;100.00;101797.38;5063778;28;20045;-72
2023/05/07 04:32:52;;;;;;;1999.90;756.17;;;;;;;7.34;100.00;101792.31;5062947;28;20025;-73
2023/05/07 04:35:19;;;;;;;1999.90;884.30;;;;;;;7.39;100.00;101798.13;5053638;28;20025;-73
2023/05/07 04:37:44;;;;;;;1999.90;973.63;;;;;;;7.48;100.00;101808.03;5063055;28;20217;-72
2023/05/07 04:40:10;;;;;;;1999.90;765.03;;;;;;;7.45;100.00;101792.34;5062964;28;20040;-73
2023/05/07 04:42:36;;;;;;;1999.90;752.70;;;;;;;7.43;100.00;101780.97;5051813;28;20735;-70
2023/05/07 04:45:02;;;;;;;1999.90;688.05;;;;;;;7.51;100.00;101786.53;5050100;28;20040;-73
2023/05/07 04:47:30;;;;;;;1999.90;797.90;;;;;;;7.56;100.00;101773.78;5066951;28;20555;-73
2023/05/07 04:49:58;;;;;;;1999.90;861.58;;;;;;;7.53;100.00;101773.16;5066049;28;20733;-72
2023/05/07 04:52:23;;;;;;;1999.90;853.22;;;;;;;7.65;100.00;101776.69;5065239;28;20032;-73
2023/05/07 04:54:49;;;;;;;1999.90;919.70;;;;;;;7.65;100.00;101766.88;5066617;28;20307;-70
2023/05/07 04:57:14;;;;;;;1999.90;932.40;;;;;;;7.68;100.00;101768.47;5066581;28;20028;-73
2023/05/07 04:59:40;;;;;;;1999.90;874.88;;;;;;;7.57;100.00;101754.19;5066594;28;20036;-71
2023/05/07 05:02:06;;;;;;;1999.90;781.83;;;;;;;7.60;100.00;101759.25;5066217;28;20020;-69
2023/05/07 05:04:31;;;;;;;1999.90;812.33;;;;;;;7.54;100.00;101753.59;5072030;28;20503;-71
2023/05/07 05:06:58;;;;;;;1999.90;894.73;;;;;;;7.60;100.00;101761.09;5065953;28;20068;-73
2023/05/07 05:09:23;;;;;;;1999.90;856.35;;;;;;;7.54;100.00;101754.44;5066537;28;20370;-73
2023/05/07 05:11:49;;;;;;;1999.90;890.42;;;;;;;7.69;100.00;101768.34;5049690;28;20505;-72
2023/05/07 05:14:15;;;;;;;1999.90;839.93;;;;;;;7.73;100.00;101763.66;5049416;28;20040;-73
2023/05/07 05:16:40;;;;;;;1999.90;797.80;;;;;;;7.57;100.00;101758.66;5066043;28;20017;-72
2023/05/07 05:19:06;;;;;;;1999.90;997.33;;;;;;;7.71;100.00;101782.38;5065813;28;20067;-69
2023/05/07 05:21:34;;;;;;;1999.90;755.35;;;;;;;7.69;100.00;101767.50;5065372;28;20067;-72
2023/05/07 05:24:05;;;;;;;1999.90;796.33;;;;;;;7.79;100.00;101795.06;5049353;28;20040;-73
2023/05/07 05:26:31;;;;;;;1999.90;726.22;;;;;;;7.79;100.00;101784.44;5049334;28;20041;-69
2023/05/07 05:28:57;;;;;;;1999.90;850.70;;;;;;;7.86;100.00;101790.97;5065638;28;20036;-73
2023/05/07 05:31:24;;;;;;;1999.90;859.20;;;;;;;7.78;100.00;101777.44;5065656;28;20410;-73
2023/05/07 05:33:50;;;;;;;;;;;;;;;7.81;100.00;101775.38;5065898;28;20024;-73
2023/05/07 05:36:16;;;;;;;1999.90;781.17;;;;;;;7.78;100.00;101785.41;5058904;28;19965;-69
2023/05/07 05:38:44;;;;;;;1999.90;791.97;;;;;;;7.68;100.00;101795.03;5065788;28;20020;-71
2023/05/07 05:41:10;;;;;;;1999.90;862.47;;;;;;;7.79;100.00;101806.53;5064557;28;20029;-72
2023/05/07 05:43:36;;;;;;;1999.90;811.20;;;;;;;7.93;100.00;101820.59;5065515;28;20025;-69
2023/05/07 05:46:01;;;;;;;1999.90;635.83;;;;;;;7.69;100.00;101805.56;5065746;28;20060;-70
2023/05/07 05:48:29;;;;;;;1999.90;902.67;;;;;;;7.75;100.00;101834.34;5065560;28;20058;-73
2023/05/07 05:50:54;;;;;;;1999.90;999.90;;;;;;;7.67;100.00;101827.91;5065562;28;20032;-73
2023/05/07 05:53:20;;;;;;;1999.90;797.85;;;;;;;7.86;100.00;101853.94;5066690;28;20976;-72
2023/05/07 05:55:46;;;;;;;1999.90;806.60;;;;;;;7.87;100.00;101843.19;5051971;28;20044;-72
2023/05/07 05:58:11;;;;;;;1999.90;820.40;;;;;;;7.79;100.00;101832.28;5065507;28;20376;-70
2023/05/07 06:00:41;;;;;;;1999.90;734.45;;;;;;;7.92;100.00;101843.69;5065462;28;20123;-70
2023/05/07 06:03:07;;;;;;;1999.90;618.05;;;;;;;7.94;100.00;101841.75;5064893;28;20713;-73
2023/05/07 06:05:34;;;;;;;1999.90;778.40;;;;;;;8.01;100.00;101842.97;5065598;28;20269;-73
2023/05/07 06:07:59;;;;;;;1999.90;988.67;;;;;;;7.96;100.00;101828.31;5065112;28;20475;-73
2023/05/07 06:10:30;;;;;;;1999.90;829.53;;;;;;;8.20;100.00;101850.34;5065600;28;20032;-73
2023/05/07 06:12:55;;;;;;;1999.90;895.08;;;;;;;8.12;100.00;101820.00;5048368;28;20098;-74
2023/05/07 06:15:21;;;;;;;1999.90;944.70;;;;;;;8.09;100.00;101796.31;5055357;28;20024;-71
2023/05/07 06:17:47;;;;;;;1999.90;630.97;;;;;;;8.06;100.00;101778.78;5065321;28;20047;-71
2023/05/07 06:20:12;;;;;;;1999.90;944.83;;;;;;;8.31;100.00;101796.31;5066532;28;20479;-71
2023/05/07 06:22:39;;;;;;;;;;;;;;;8.31;100.00;101788.31;5065227;28;20271;-71
2023/05/07 06:25:05;;;;;;;1999.90;759.17;;;;;;;8.30;100.00;101768.00;5064878;28;19919;-71
2023/05/07 06:27:30;;;;;;;;;;;;;;;8.51;100.00;101759.28;5065378;28;20090;-71
2023/05/07 06:29:56;;;;;;;;;;;;;;;8.53;100.00;101750.22;5065458;28;20379;-71
2023/05/07 06:32:21;;;;;;;1823.23;478.07;;;;;;;8.60;100.00;101738.09;5066382;28;20509;-71
2023/05/07 06:34:48;;;;;;;;;;;;;;;8.85;100.00;101720.09;5065184;28;20483;-71
2023/05/07 06:37:14;;;;;;;1999.90;697.28;;;;;;;9.07;100.00;101695.16;5047727;28;20252;-72
2023/05/07 06:39:59;;;;;;;1999.90;591.97;;;;;;;9.52;100.00;101684.22;5064286;28;20388;-71
2023/05/07 06:42:26;;;;;;;1999.90;572.43;;;;;;;9.34;100.00;101608.50;5064334;28;20129;-71
2023/05/07 06:44:56;;;;;;;1999.90;660.13;;;;;;;9.25;100.00;101530.25;5064763;28;20060;-71
2023/05/07 06:47:22;;;;;;;84.43;38.40;;;;;;;9.35;100.00;101527.59;5054670;28;20060;-72
2023/05/07 06:49:51;;;;;;;33.08;29.60;;;;;;;9.53;100.00;101533.97;5048392;28;20036;-71
2023/05/07 06:52:19;;;;;;;1999.90;506.00;;;;;;;9.27;100.00;101454.50;5055036;28;20025;-70
2023/05/07 06:54:46;;;;;;;1999.90;681.33;;;;;;;8.95;100.00;101400.59;5064298;28;20032;-71
2023/05/07 06:57:14;;;;;;;1999.90;625.20;;;;;;;9.19;100.00;101473.00;5063896;28;20107;-72
2023/05/07 06:59:40;;;;;;;1999.90;808.22;;;;;;;9.25;100.00;101453.81;5064413;28;20171;-71
2023/05/07 07:02:06;;;;;;;1999.90;722.43;;;;;;;9.28;100.00;101440.19;5063253;28;20031;-70
2023/05/07 07:04:31;;;;;;;1999.90;511.83;;;;;;;9.42;100.00;101414.97;5063932;28;20490;-71
2023/05/07 07:07:01;;;;;;;1999.90;555.53;;;;;;;9.54;100.00;101399.69;5047688;28;20077;-71
2023/05/07 07:09:28;;;;;;;1999.90;607.53;;;;;;;9.33;100.00;101338.53;5064144;28;20033;-71
2023/05/07 07:11:54;;;;;;;1999.90;847.67;;;;;;;9.41;100.00;101356.47;5063706;28;20016;-72
2023/05/07 07:14:20;;;;;;;1999.90;731.38;;;;;;;9.34;100.00;101313.56;5054041;28;20065;-71
2023/05/07 07:16:49;;;;;;;1999.90;723.50;;;;;;;9.36;100.00;101292.94;5047518;28;20020;-71
2023/05/07 07:19:16;;;;;;;1999.90;797.45;;;;;;;9.23;100.00;101282.56;5056864;28;20123;-72
2023/05/07 07:21:42;;;;;;;1030.57;140.07;;;;;;;9.27;100.00;101323.94;5063820;28;20123;-71
2023/05/07 07:24:09;;;;;;;1999.90;503.92;;;;;;;9.24;100.00;101358.84;5063163;28;20032;-71
2023/05/07 07:26:35;;;;;;;1999.90;712.03;;;;;;;8.84;100.00;101343.78;5064024;28;20025;-72
2023/05/07 07:29:00;;;;;;;26.55;23.63;;;;;;;9.07;100.00;101431.47;5064935;28;20043;-69
2023/05/07 07:31:26;;;;;;;1999.90;806.13;;;;;;;8.98;100.00;101402.97;5065199;28;20111;-69
2023/05/07 07:33:51;;;;;;;1959.47;615.40;;;;;;;9.12;100.00;101455.03;5066029;28;20024;-70
2023/05/07 07:36:17;;;;;;;995.10;266.83;;;;;;;9.10;100.00;101460.47;5064080;28;20036;-71
2023/05/07 07:38:42;;;;;;;737.00;162.17;;;;;;;9.53;100.00;101520.66;5063966;28;20028;-71
2023/05/07 07:41:08;;;;;;;95.20;86.35;;;;;;;9.39;100.00;101494.34;5063805;28;20040;-71
2023/05/07 07:43:35;;;;;;;418.67;137.75;;;;;;;9.79;100.00;101552.97;5068195;28;20032;-71
2023/05/07 07:46:01;;;;;;;1999.90;736.55;;;;;;;9.22;100.00;101446.06;5063538;28;20040;-72
2023/05/07 07:48:27;;;;;;;1999.90;765.60;;;;;;;9.10;100.00;101433.84;5063676;28;20085;-71
2023/05/07 07:50:52;;;;;;;1999.90;980.58;;;;;;;9.11;100.00;101477.28;5046836;28;20130;-71
2023/05/07 07:53:18;;;;;;;1999.90;786.85;;;;;;;9.12;100.00;101466.50;5070571;28;20024;-71
2023/05/07 07:55:44;;;;;;;1999.90;826.95;;;;;;;9.27;100.00;101453.66;5063557;28;20033;-71
2023/05/07 07:58:12;;;;;;;1999.90;559.63;;;;;;;9.51;100.00;101503.94;5063628;28;20041;-72
2023/05/07 08:00:38;;;;;;;1999.90;833.40;;;;;;;9.56;100.00;101461.72;5064668;28;20043;-70
2023/05/07 08:03:04;;;;;;;1999.90;880.13;;;;;;;9.45;100.00;101414.69;5062980;28;20020;-71
2023/05/07 08:05:36;;;;;;;1999.90;941.05;;;;;;;9.67;100.00;101466.94;5042158;28;20117;-70
2023/05/07 08:08:04;;;;;;;1999.90;896.72;;;;;;;9.67;100.00;101426.94;5033977;28;20548;-71
2023/05/07 08:10:34;;;;;;;1999.90;830.30;;;;;;;9.71;100.00;101403.47;5055033;28;20021;-70
2023/05/07 08:13:04;;;;;;;1999.90;843.22;;;;;;;9.50;100.00;101363.63;5037749;28;20514;-70
2023/05/07 08:15:30;;;;;;;1999.90;815.15;;;;;;;9.46;100.00;101372.91;5045794;28;20032;-71
2023/05/07 08:17:57;;;;;;;46.72;24.10;;;;;;;10.13;100.00;101468.03;5059779;28;20109;-70
2023/05/07 08:20:23;;;;;;;1999.90;843.58;;;;;;;9.68;100.00;101323.78;5051080;28;20048;-71
2023/05/07 08:22:51;;;;;;;1999.90;924.78;;;;;;;10.15;100.00;101426.03;5056364;28;20032;-69
2023/05/07 08:25:16;;;;;;;1999.90;420.77;;;;;;;10.00;100.00;101328.78;5056150;28;20039;-70
2023/05/07 08:27:41;;;;;;;1999.90;701.73;;;;;;;10.42;100.00;101349.72;5054827;28;20414;-71
2023/05/07 08:30:07;;;;;;;1999.90;681.07;;;;;;;10.70;100.00;101253.59;5059508;28;20036;-71
2023/05/07 08:32:33;;;;;;;1999.90;855.28;;;;;;;10.45;100.00;101282.69;5056375;28;20115;-71
2023/05/07 08:34:58;;;;;;;1999.90;847.83;;;;;;;10.56;100.00;101305.69;5054892;28;20056;-71
2023/05/07 08:37:24;;;;;;;1722.07;471.40;;;;;;;9.97;100.00;101200.16;5063618;28;20403;-71
2023/05/07 08:39:49;;;;;;;1999.90;750.55;;;;;;;10.44;100.00;101326.41;5037815;28;20716;-71
2023/05/07 08:42:22;;;;;;;1999.90;857.88;;;;;;;10.56;100.00;101321.72;5050807;28;20024;-71
2023/05/07 08:44:52;;;;;;;1999.90;768.95;;;;;;;10.36;100.00;101251.56;5057407;28;20036;-71
2023/05/07 08:47:19;;;;;;;1999.90;829.03;;;;;;;10.02;100.00;101286.78;5053298;28;20029;-71
2023/05/07 08:49:45;;;;;;;1999.90;861.42;;;;;;;11.01;100.00;101555.16;5057209;28;20348;-71
2023/05/07 08:52:12;;;;;;;1999.90;718.90;;;;;;;11.34;100.00;101388.84;5062770;28;20124;-71
2023/05/07 08:54:39;;;;;;;1999.90;749.17;;;;;;;11.00;100.00;101164.22;5060115;28;20771;-71
2023/05/07 08:57:06;;;;;;;1999.90;792.00;;;;;;;10.43;100.00;101091.66;5079503;28;20445;-70
2023/05/07 08:59:33;;;;;;;1999.90;751.80;;;;;;;11.08;100.00;101262.31;5047359;28;20463;-71
2023/05/07 09:01:59;;;;;;;1999.90;735.53;;;;;;;11.11;100.00;101153.28;5062973;28;20097;-71
2023/05/07 09:04:24;;;;;;;1999.90;818.30;;;;;;;10.91;100.00;101074.31;5062889;28;20480;-71
2023/05/07 09:06:51;;;;;;;1999.90;833.95;;;;;;;11.22;100.00;101170.06;5045711;28;20824;-70
2023/05/07 09:09:21;;;;;;;1999.90;562.55;;;;;;;11.74;100.00;101093.31;5063014;28;20483;-71
2023/05/07 09:11:47;;;;;;;1999.90;684.65;;;;;;;12.34;100.00;101045.94;5062706;28;20101;-71
2023/05/07 09:14:16;;;;;;;24.45;9.15;;;;;;;12.71;100.00;100991.03;5050593;28;20074;-71
2023/05/07 09:16:43;;;;;;;17.40;15.88;;;;;;;12.33;100.00;100870.28;5072562;28;20025;-71
2023/05/07 09:19:08;;;;;;;8.03;7.27;;;;;;;12.62;100.00;100881.25;5046185;28;20031;-72
2023/05/07 09:21:35;;;;;;;9.35;7.75;;;;;;;12.14;100.00;100775.13;5051037;28;20028;-71
2023/05/07 09:24:03;;;;;;;185.18;39.00;;;;;;;11.58;100.00;100746.44;5061962;28;20069;-71
2023/05/07 09:26:35;;;;;;;88.18;43.08;;;;;;;11.50;100.00;100922.09;5045808;28;20028;-71
2023/05/07 09:29:01;;;;;;;9.00;6.53;;;;;;;11.65;100.00;101107.66;5060041;28;20036;-70
2023/05/07 09:31:27;;;;;;;95.07;26.77;;;;;;;12.00;100.00;101025.53;5044288;28;20031;-71
2023/05/07 09:33:55;;;;;;;16.15;8.68;;;;;;;12.78;100.00;101042.91;5059983;28;20093;-71
2023/05/07 09:36:22;;;;;;;15.95;14.38;;;;;;;12.02;100.00;100844.22;5050946;28;20064;-70
2023/05/07 09:38:49;;;;;;;7.90;5.57;;;;;;;12.73;100.00;100970.28;5060531;28;20107;-71
2023/05/07 09:41:16;;;;;;;12.82;9.80;;;;;;;14.14;100.00;100769.72;5067178;28;20067;-70
2023/05/07 09:43:54;;;;;;;7.93;5.15;;;;;;;12.78;100.00;100577.63;5057113;28;20016;-72
2023/05/07 09:46:30;;;;;;;18.75;16.98;;;;;;;12.83;100.00;100760.09;5061520;28;20087;-70
2023/05/07 09:48:58;;;;;;;7.25;5.68;;;;;;;13.79;100.00;100959.09;5045644;28;20029;-71
2023/05/07 09:51:29;;;;;;;13.15;7.25;;;;;;;13.84;100.00;100591.75;5063692;28;20051;-71
2023/05/07 09:53:59;;;;;;;819.65;68.25;;;;;;;12.65;100.00;100243.44;5041881;28;20579;-71
2023/05/07 09:56:26;;;;;;;25.33;9.10;;;;;;;14.01;100.00;100760.63;5061821;28;20917;-70
2023/05/07 09:58:53;;;;;;;22.08;5.95;;;;;;;15.13;100.00;100602.53;5061668;28;20412;-72
2023/05/07 10:01:21;;;;;;;6.90;4.53;;;;;;;15.16;100.00;100438.13;5052540;28;20063;-71
2023/05/07 10:03:49;;;;;;;26.63;8.60;;;;;;;14.57;100.00;100269.38;5066557;28;20055;-72
2023/05/07 10:06:15;;;;;;;87.47;13.50;;;;;;;13.64;100.00;100298.28;5059226;28;20135;-72
2023/05/07 10:08:42;;;;;;;145.95;19.25;;;;;;;13.31;100.00;100261.25;5062530;28;20028;-71
2023/05/07 10:11:09;;;;;;;128.35;23.65;;;;;;;13.87;100.00;100548.44;5031379;28;20036;-71
2023/05/07 10:13:38;;;;;;;183.07;18.73;;;;;;;14.84;100.00;100412.72;5063242;28;20024;-71
2023/05/07 10:16:05;;;;;;;537.17;39.38;;;;;;;14.40;100.00;100340.50;5061956;28;20035;-72
2023/05/07 10:18:38;;;;;;;254.80;21.25;;;;;;;14.87;100.00;100220.69;5062299;28;20024;-72
2023/05/07 10:21:17;;;;;;;38.90;6.03;;;;;;;14.40;99.32;100118.47;5045897;28;20056;-72
2023/05/07 10:24:10;;;;;;;6.50;4.38;;;;;;;14.21;97.33;99921.41;5061475;28;20044;-72
2023/05/07 10:26:37;;;;;;;5.88;5.18;;;;;;;14.69;98.04;100176.41;5040472;28;20041;-70
2023/05/07 10:29:15;;;;;;;6.18;3.38;;;;;;;14.93;96.15;100171.50;5061387;28;20028;-72
2023/05/07 10:32:19;;;;;;;3.80;3.35;;;;;;;14.74;95.44;100081.75;5065997;28;20100;-71
2023/05/07 10:34:48;;;;;;;4.80;3.45;;;;;;;14.61;96.41;100224.97;5042552;28;20363;-71
2023/05/07 10:37:15;;;;;;;16.02;5.97;;;;;;;14.39;96.77;100234.13;5062102;28;20023;-72
2023/05/07 10:39:41;;;;;;;;;;;;;;;15.07;94.44;100200.03;5061428;28;20044;-71
2023/05/07 10:42:13;;;;;;;207.48;16.27;;;;;;;14.14;95.26;100017.19;5061317;28;20230;-71
2023/05/07 10:44:43;;;;;;;3.40;3.10;;;;;;;15.07;94.27;100242.22;5058325;28;20064;-72
2023/05/07 10:47:18;;;;;;;7.20;2.75;;;;;;;16.29;91.12;100277.81;5061720;28;20437;-71
2023/05/07 10:49:45;;;;;;;90.07;6.65;;;;;;;15.51;88.58;99827.38;5061542;28;20264;-70
2023/05/07 10:52:26;;;;;;;3.33;2.55;;;;;;;15.02;89.45;99853.06;5051530;28;20036;-72
2023/05/07 10:55:32;;;;;;;143.80;10.13;;;;;;;14.90;88.14;99764.22;5058244;28;20044;-72